Waynesboro, Pennsylvania
Current Conditions -  °F | °C
As of 12:53 PM on Sunday 25 Jan 2015 (Local Time) from KRYT Reporting Station
Overcast Overcast  
Wind Chill: 38°   Ceiling: 3600
Heat Index: 42°   Visibility: 10mi
Dew Point: 29°   Wind: 6mph
Humidity: 60%   Direction: NA
Pressure: 29.78"   Gusts: NA
Location:  39.76°N, 77.58°W
Report Text: KRYT 251753Z AUTO VRB05KT 10SM BKN036 OVC043 06/M02 A2978 RMK AO2 SLP093 T00561017 10056 20028 50002 $
Loading
Personal Weather Stations






























Interactive Weather Map New forecast layout! Learn more

10-Day Weather Forecast

Advertisements
Track Severe Weather on mobile